sensor_id;sensor_type;location;lat;lon;timestamp;temperature;humidity
7530;DHT22;3806;52.270;10.544;2022-07-01T00:01:37;24.50;92.80
7530;DHT22;3806;52.270;10.544;2022-07-01T00:04:03;24.50;92.80
7530;DHT22;3806;52.270;10.544;2022-07-01T00:06:29;24.50;92.90
7530;DHT22;3806;52.270;10.544;2022-07-01T00:08:54;24.50;92.80
7530;DHT22;3806;52.270;10.544;2022-07-01T00:11:20;24.50;92.90
7530;DHT22;3806;52.270;10.544;2022-07-01T00:13:46;24.50;93.00
7530;DHT22;3806;52.270;10.544;2022-07-01T00:16:12;24.40;93.00
7530;DHT22;3806;52.270;10.544;2022-07-01T00:18:38;24.40;93.10
7530;DHT22;3806;52.270;10.544;2022-07-01T00:21:03;24.30;93.20
7530;DHT22;3806;52.270;10.544;2022-07-01T00:23:29;24.20;93.40
7530;DHT22;3806;52.270;10.544;2022-07-01T00:25:55;24.20;93.50
7530;DHT22;3806;52.270;10.544;2022-07-01T00:28:20;24.10;93.70
7530;DHT22;3806;52.270;10.544;2022-07-01T00:30:46;24.10;94.00
7530;DHT22;3806;52.270;10.544;2022-07-01T00:33:12;24.00;94.20
7530;DHT22;3806;52.270;10.544;2022-07-01T00:35:37;23.90;94.50
7530;DHT22;3806;52.270;10.544;2022-07-01T00:38:03;23.70;94.90
7530;DHT22;3806;52.270;10.544;2022-07-01T00:40:29;23.70;95.20
7530;DHT22;3806;52.270;10.544;2022-07-01T00:42:55;23.60;95.50
7530;DHT22;3806;52.270;10.544;2022-07-01T00:45:21;23.50;95.80
7530;DHT22;3806;52.270;10.544;2022-07-01T00:47:46;23.40;96.00
7530;DHT22;3806;52.270;10.544;2022-07-01T00:50:14;23.40;96.40
7530;DHT22;3806;52.270;10.544;2022-07-01T00:52:41;23.30;96.60
7530;DHT22;3806;52.270;10.544;2022-07-01T00:55:09;23.20;96.90
7530;DHT22;3806;52.270;10.544;2022-07-01T00:57:36;23.20;97.20
7530;DHT22;3806;52.270;10.544;2022-07-01T01:00:07;23.10;97.50
7530;DHT22;3806;52.270;10.544;2022-07-01T01:02:34;23.00;97.70
7530;DHT22;3806;52.270;10.544;2022-07-01T01:05:02;23.10;98.00
7530;DHT22;3806;52.270;10.544;2022-07-01T01:07:27;23.00;98.30
7530;DHT22;3806;52.270;10.544;2022-07-01T01:09:54;22.90;98.70
7530;DHT22;3806;52.270;10.544;2022-07-01T01:12:20;22.80;99.00
7530;DHT22;3806;52.270;10.544;2022-07-01T01:14:47;22.80;99.30
7530;DHT22;3806;52.270;10.544;2022-07-01T01:17:13;22.70;99.50
7530;DHT22;3806;52.270;10.544;2022-07-01T01:19:40;22.70;99.70
7530;DHT22;3806;52.270;10.544;2022-07-01T01:22:06;22.70;99.90
7530;DHT22;3806;52.270;10.544;2022-07-01T01:24:32;22.60;99.90
7530;DHT22;3806;52.270;10.544;2022-07-01T01:26:57;22.70;99.90
7530;DHT22;3806;52.270;10.544;2022-07-01T01:29:23;22.60;99.90
7530;DHT22;3806;52.270;10.544;2022-07-01T01:31:49;22.60;99.90
7530;DHT22;3806;52.270;10.544;2022-07-01T01:34:14;22.50;99.90
7530;DHT22;3806;52.270;10.544;2022-07-01T01:36:40;22.60;99.90
7530;DHT22;3806;52.270;10.544;2022-07-01T01:39:06;22.50;99.90
7530;DHT22;3806;52.270;10.544;2022-07-01T01:41:40;22.40;99.90
7530;DHT22;3806;52.270;10.544;2022-07-01T01:44:05;22.30;99.90
7530;DHT22;3806;52.270;10.544;2022-07-01T01:46:31;22.30;99.90
7530;DHT22;3806;52.270;10.544;2022-07-01T01:48:57;22.30;99.90
7530;DHT22;3806;52.270;10.544;2022-07-01T01:51:23;22.30;99.90
7530;DHT22;3806;52.270;10.544;2022-07-01T01:53:49;22.30;99.90
7530;DHT22;3806;52.270;10.544;2022-07-01T01:56:15;22.30;99.90
7530;DHT22;3806;52.270;10.544;2022-07-01T01:58:40;22.30;99.90
7530;DHT22;3806;52.270;10.544;2022-07-01T02:01:10;22.20;99.90
7530;DHT22;3806;52.270;10.544;2022-07-01T02:03:37;22.20;99.90
7530;DHT22;3806;52.270;10.544;2022-07-01T02:06:03;22.20;99.90
7530;DHT22;3806;52.270;10.544;2022-07-01T02:08:29;22.20;99.90
7530;DHT22;3806;52.270;10.544;2022-07-01T02:10:55;22.20;99.90
7530;DHT22;3806;52.270;10.544;2022-07-01T02:13:21;22.10;99.90
7530;DHT22;3806;52.270;10.544;2022-07-01T02:15:47;22.10;99.90
7530;DHT22;3806;52.270;10.544;2022-07-01T02:18:14;22.10;99.90
7530;DHT22;3806;52.270;10.544;2022-07-01T02:20:40;22.10;99.90
7530;DHT22;3806;52.270;10.544;2022-07-01T02:23:07;22.10;99.90
7530;DHT22;3806;52.270;10.544;2022-07-01T02:25:33;22.20;99.90
7530;DHT22;3806;52.270;10.544;2022-07-01T02:27:58;22.10;99.90
7530;DHT22;3806;52.270;10.544;2022-07-01T02:30:25;22.10;99.90
7530;DHT22;3806;52.270;10.544;2022-07-01T02:32:50;22.10;99.90
7530;DHT22;3806;52.270;10.544;2022-07-01T02:35:16;22.00;99.90
7530;DHT22;3806;52.270;10.544;2022-07-01T02:37:42;22.10;99.90
7530;DHT22;3806;52.270;10.544;2022-07-01T02:40:08;22.00;99.90
7530;DHT22;3806;52.270;10.544;2022-07-01T02:42:34;21.90;99.90
7530;DHT22;3806;52.270;10.544;2022-07-01T02:45:02;21.80;99.90
7530;DHT22;3806;52.270;10.544;2022-07-01T02:47:47;21.70;99.90
7530;DHT22;3806;52.270;10.544;2022-07-01T02:50:17;21.70;99.90
7530;DHT22;3806;52.270;10.544;2022-07-01T02:52:43;21.70;99.90
7530;DHT22;3806;52.270;10.544;2022-07-01T02:55:11;21.60;99.90
7530;DHT22;3806;52.270;10.544;2022-07-01T02:57:37;21.60;99.90
7530;DHT22;3806;52.270;10.544;2022-07-01T03:00:04;21.50;99.90
7530;DHT22;3806;52.270;10.544;2022-07-01T03:02:31;21.40;99.90
7530;DHT22;3806;52.270;10.544;2022-07-01T03:04:57;21.30;99.90
7530;DHT22;3806;52.270;10.544;2022-07-01T03:07:22;21.30;99.90
7530;DHT22;3806;52.270;10.544;2022-07-01T03:09:48;21.20;99.90
7530;DHT22;3806;52.270;10.544;2022-07-01T03:12:14;21.10;99.90
7530;DHT22;3806;52.270;10.544;2022-07-01T03:15:03;21.10;99.90
7530;DHT22;3806;52.270;10.544;2022-07-01T03:17:30;21.00;99.90
7530;DHT22;3806;52.270;10.544;2022-07-01T03:19:57;20.90;99.90
7530;DHT22;3806;52.270;10.544;2022-07-01T03:22:26;20.90;99.90
7530;DHT22;3806;52.270;10.544;2022-07-01T03:24:52;20.80;99.90
7530;DHT22;3806;52.270;10.544;2022-07-01T03:27:18;20.80;99.90
7530;DHT22;3806;52.270;10.544;2022-07-01T03:29:44;20.70;99.90
7530;DHT22;3806;52.270;10.544;2022-07-01T03:32:11;20.60;99.90
7530;DHT22;3806;52.270;10.544;2022-07-01T03:34:37;20.60;99.90
7530;DHT22;3806;52.270;10.544;2022-07-01T03:37:04;20.50;99.90
7530;DHT22;3806;52.270;10.544;2022-07-01T03:39:30;20.40;99.90
7530;DHT22;3806;52.270;10.544;2022-07-01T03:41:56;20.40;99.90
7530;DHT22;3806;52.270;10.544;2022-07-01T03:44:21;20.40;99.90
7530;DHT22;3806;52.270;10.544;2022-07-01T03:46:47;20.30;99.90
7530;DHT22;3806;52.270;10.544;2022-07-01T03:49:13;20.30;99.90
7530;DHT22;3806;52.270;10.544;2022-07-01T03:51:38;20.30;99.90
7530;DHT22;3806;52.270;10.544;2022-07-01T03:54:04;20.20;99.90
7530;DHT22;3806;52.270;10.544;2022-07-01T03:56:48;20.20;99.90
7530;DHT22;3806;52.270;10.544;2022-07-01T03:59:14;20.10;99.90
7530;DHT22;3806;52.270;10.544;2022-07-01T04:01:39;20.00;99.90
7530;DHT22;3806;52.270;10.544;2022-07-01T04:04:05;19.90;99.90
7530;DHT22;3806;52.270;10.544;2022-07-01T04:06:31;20.00;99.90
7530;DHT22;3806;52.270;10.544;2022-07-01T04:08:56;19.80;99.90
7530;DHT22;3806;52.270;10.544;2022-07-01T04:11:22;19.70;99.90
7530;DHT22;3806;52.270;10.544;2022-07-01T04:13:48;19.60;99.90
7530;DHT22;3806;52.270;10.544;2022-07-01T04:16:17;19.60;99.90
7530;DHT22;3806;52.270;10.544;2022-07-01T04:18:44;19.60;99.90
7530;DHT22;3806;52.270;10.544;2022-07-01T04:21:09;19.50;99.90
7530;DHT22;3806;52.270;10.544;2022-07-01T04:23:54;19.60;99.90
7530;DHT22;3806;52.270;10.544;2022-07-01T04:26:20;19.60;99.90
7530;DHT22;3806;52.270;10.544;2022-07-01T04:28:46;19.60;99.90
7530;DHT22;3806;52.270;10.544;2022-07-01T04:31:11;19.50;99.90
7530;DHT22;3806;52.270;10.544;2022-07-01T04:33:37;19.50;99.90
7530;DHT22;3806;52.270;10.544;2022-07-01T04:36:03;19.50;99.90
7530;DHT22;3806;52.270;10.544;2022-07-01T04:38:29;19.50;99.90
7530;DHT22;3806;52.270;10.544;2022-07-01T04:40:54;19.50;99.90
7530;DHT22;3806;52.270;10.544;2022-07-01T04:43:39;19.50;99.90
7530;DHT22;3806;52.270;10.544;2022-07-01T04:46:04;19.40;99.90
7530;DHT22;3806;52.270;10.544;2022-07-01T04:48:30;19.40;99.90
7530;DHT22;3806;52.270;10.544;2022-07-01T04:50:56;19.40;99.90
7530;DHT22;3806;52.270;10.544;2022-07-01T04:53:21;19.50;99.90
7530;DHT22;3806;52.270;10.544;2022-07-01T04:55:47;19.50;99.90
7530;DHT22;3806;52.270;10.544;2022-07-01T04:58:13;19.50;99.90
7530;DHT22;3806;52.270;10.544;2022-07-01T05:00:38;19.40;99.90
7530;DHT22;3806;52.270;10.544;2022-07-01T05:03:04;19.40;99.90
7530;DHT22;3806;52.270;10.544;2022-07-01T05:05:29;19.50;99.90
7530;DHT22;3806;52.270;10.544;2022-07-01T05:07:55;19.50;99.90
7530;DHT22;3806;52.270;10.544;2022-07-01T05:10:21;19.40;99.90
7530;DHT22;3806;52.270;10.544;2022-07-01T05:12:46;19.30;99.90
7530;DHT22;3806;52.270;10.544;2022-07-01T05:15:12;19.20;99.90
7530;DHT22;3806;52.270;10.544;2022-07-01T05:17:38;19.20;99.90
7530;DHT22;3806;52.270;10.544;2022-07-01T05:20:22;19.20;99.90
7530;DHT22;3806;52.270;10.544;2022-07-01T05:23:06;19.20;99.90
7530;DHT22;3806;52.270;10.544;2022-07-01T05:25:32;19.20;99.90
7530;DHT22;3806;52.270;10.544;2022-07-01T05:27:57;19.20;99.90
7530;DHT22;3806;52.270;10.544;2022-07-01T05:30:23;19.20;99.90
7530;DHT22;3806;52.270;10.544;2022-07-01T05:32:48;19.20;99.90
7530;DHT22;3806;52.270;10.544;2022-07-01T05:35:14;19.30;99.90
7530;DHT22;3806;52.270;10.544;2022-07-01T05:37:40;19.30;99.90
7530;DHT22;3806;52.270;10.544;2022-07-01T05:40:06;19.30;99.90
7530;DHT22;3806;52.270;10.544;2022-07-01T05:42:32;19.40;99.90
7530;DHT22;3806;52.270;10.544;2022-07-01T05:44:58;19.40;99.90
7530;DHT22;3806;52.270;10.544;2022-07-01T05:47:23;19.40;99.90
7530;DHT22;3806;52.270;10.544;2022-07-01T05:49:49;19.30;99.90
7530;DHT22;3806;52.270;10.544;2022-07-01T05:52:15;19.30;99.90
7530;DHT22;3806;52.270;10.544;2022-07-01T05:54:40;19.30;99.90
7530;DHT22;3806;52.270;10.544;2022-07-01T05:57:06;19.30;99.90
7530;DHT22;3806;52.270;10.544;2022-07-01T05:59:32;19.40;99.90
7530;DHT22;3806;52.270;10.544;2022-07-01T06:01:57;19.40;99.90
7530;DHT22;3806;52.270;10.544;2022-07-01T06:04:23;19.50;99.90
7530;DHT22;3806;52.270;10.544;2022-07-01T06:06:48;19.40;99.90
7530;DHT22;3806;52.270;10.544;2022-07-01T06:09:14;19.60;99.90
7530;DHT22;3806;52.270;10.544;2022-07-01T06:11:40;19.60;99.90
7530;DHT22;3806;52.270;10.544;2022-07-01T06:14:05;19.70;99.90
7530;DHT22;3806;52.270;10.544;2022-07-01T06:16:31;19.70;99.90
7530;DHT22;3806;52.270;10.544;2022-07-01T06:18:56;19.70;99.90
7530;DHT22;3806;52.270;10.544;2022-07-01T06:21:22;19.70;99.90
7530;DHT22;3806;52.270;10.544;2022-07-01T06:23:48;19.80;99.90
7530;DHT22;3806;52.270;10.544;2022-07-01T06:26:13;19.90;99.90
7530;DHT22;3806;52.270;10.544;2022-07-01T06:28:40;19.90;99.90
7530;DHT22;3806;52.270;10.544;2022-07-01T06:31:06;19.90;99.90
7530;DHT22;3806;52.270;10.544;2022-07-01T06:33:31;20.00;99.90
7530;DHT22;3806;52.270;10.544;2022-07-01T06:35:57;20.00;99.90
7530;DHT22;3806;52.270;10.544;2022-07-01T06:38:23;20.00;99.90
7530;DHT22;3806;52.270;10.544;2022-07-01T06:40:49;20.00;99.90
7530;DHT22;3806;52.270;10.544;2022-07-01T06:43:34;20.00;99.90
7530;DHT22;3806;52.270;10.544;2022-07-01T06:46:00;19.80;99.90
7530;DHT22;3806;52.270;10.544;2022-07-01T06:48:26;19.70;99.90
7530;DHT22;3806;52.270;10.544;2022-07-01T06:50:52;19.70;99.90
7530;DHT22;3806;52.270;10.544;2022-07-01T06:53:18;19.70;99.90
7530;DHT22;3806;52.270;10.544;2022-07-01T06:55:44;19.60;99.90
7530;DHT22;3806;52.270;10.544;2022-07-01T06:58:10;19.60;99.90
7530;DHT22;3806;52.270;10.544;2022-07-01T07:00:36;19.50;99.90
7530;DHT22;3806;52.270;10.544;2022-07-01T07:03:02;19.60;99.90
7530;DHT22;3806;52.270;10.544;2022-07-01T07:05:28;19.60;99.90
7530;DHT22;3806;52.270;10.544;2022-07-01T07:07:57;19.50;99.90
7530;DHT22;3806;52.270;10.544;2022-07-01T07:10:24;19.50;99.90
7530;DHT22;3806;52.270;10.544;2022-07-01T07:12:49;19.50;99.90
7530;DHT22;3806;52.270;10.544;2022-07-01T07:15:15;19.50;99.90
7530;DHT22;3806;52.270;10.544;2022-07-01T07:17:42;19.50;99.90
7530;DHT22;3806;52.270;10.544;2022-07-01T07:20:08;19.50;99.90
7530;DHT22;3806;52.270;10.544;2022-07-01T07:22:34;19.50;99.90
7530;DHT22;3806;52.270;10.544;2022-07-01T07:25:00;19.50;99.90
7530;DHT22;3806;52.270;10.544;2022-07-01T07:27:26;19.40;99.90
7530;DHT22;3806;52.270;10.544;2022-07-01T07:29:52;19.40;99.90
7530;DHT22;3806;52.270;10.544;2022-07-01T07:32:17;19.30;99.90
7530;DHT22;3806;52.270;10.544;2022-07-01T07:34:43;19.20;99.90
7530;DHT22;3806;52.270;10.544;2022-07-01T07:37:09;19.20;99.90
7530;DHT22;3806;52.270;10.544;2022-07-01T07:39:35;19.10;99.90
7530;DHT22;3806;52.270;10.544;2022-07-01T07:42:02;19.10;99.90
7530;DHT22;3806;52.270;10.544;2022-07-01T07:44:43;19.00;99.90
7530;DHT22;3806;52.270;10.544;2022-07-01T07:50:09;19.00;99.90
7530;DHT22;3806;52.270;10.544;2022-07-01T07:52:48;19.00;99.90
7530;DHT22;3806;52.270;10.544;2022-07-01T07:55:31;19.00;99.90
7530;DHT22;3806;52.270;10.544;2022-07-01T07:58:33;19.10;99.90
7530;DHT22;3806;52.270;10.544;2022-07-01T08:04:34;19.00;99.90
7530;DHT22;3806;52.270;10.544;2022-07-01T08:07:03;18.90;99.90
7530;DHT22;3806;52.270;10.544;2022-07-01T08:09:49;18.90;99.90
7530;DHT22;3806;52.270;10.544;2022-07-01T08:12:37;18.90;99.90
7530;DHT22;3806;52.270;10.544;2022-07-01T08:15:04;18.90;99.90
7530;DHT22;3806;52.270;10.544;2022-07-01T08:17:33;18.80;99.90
7530;DHT22;3806;52.270;10.544;2022-07-01T08:20:13;18.80;99.90
7530;DHT22;3806;52.270;10.544;2022-07-01T08:22:49;18.80;99.90
7530;DHT22;3806;52.270;10.544;2022-07-01T08:25:17;18.80;99.90
7530;DHT22;3806;52.270;10.544;2022-07-01T08:27:43;18.80;99.90
7530;DHT22;3806;52.270;10.544;2022-07-01T08:30:38;18.80;99.90
7530;DHT22;3806;52.270;10.544;2022-07-01T08:33:04;18.80;99.90
7530;DHT22;3806;52.270;10.544;2022-07-01T08:35:30;18.90;99.90
7530;DHT22;3806;52.270;10.544;2022-07-01T08:37:55;18.90;99.90
7530;DHT22;3806;52.270;10.544;2022-07-01T08:40:27;18.90;99.90
7530;DHT22;3806;52.270;10.544;2022-07-01T08:45:25;18.90;99.90
7530;DHT22;3806;52.270;10.544;2022-07-01T08:47:52;18.80;99.90
7530;DHT22;3806;52.270;10.544;2022-07-01T08:50:21;18.80;99.90
7530;DHT22;3806;52.270;10.544;2022-07-01T08:52:46;18.80;99.90
7530;DHT22;3806;52.270;10.544;2022-07-01T08:55:12;18.90;99.90
7530;DHT22;3806;52.270;10.544;2022-07-01T08:57:38;18.90;99.90
7530;DHT22;3806;52.270;10.544;2022-07-01T09:00:05;18.80;99.90
7530;DHT22;3806;52.270;10.544;2022-07-01T09:02:55;18.80;99.90
7530;DHT22;3806;52.270;10.544;2022-07-01T09:05:21;18.70;99.90
7530;DHT22;3806;52.270;10.544;2022-07-01T09:07:48;18.70;99.90
7530;DHT22;3806;52.270;10.544;2022-07-01T09:10:18;18.80;99.90
7530;DHT22;3806;52.270;10.544;2022-07-01T09:12:48;18.70;99.90
7530;DHT22;3806;52.270;10.544;2022-07-01T09:15:26;18.80;99.90
7530;DHT22;3806;52.270;10.544;2022-07-01T09:18:02;18.70;99.90
7530;DHT22;3806;52.270;10.544;2022-07-01T09:20:33;18.70;99.90
7530;DHT22;3806;52.270;10.544;2022-07-01T09:23:05;18.80;99.90
7530;DHT22;3806;52.270;10.544;2022-07-01T09:25:36;18.90;99.90
7530;DHT22;3806;52.270;10.544;2022-07-01T09:28:13;18.90;99.90
7530;DHT22;3806;52.270;10.544;2022-07-01T09:30:41;19.00;99.90
7530;DHT22;3806;52.270;10.544;2022-07-01T09:33:15;19.10;99.90
7530;DHT22;3806;52.270;10.544;2022-07-01T09:35:42;19.10;99.90
7530;DHT22;3806;52.270;10.544;2022-07-01T09:38:12;19.10;99.90
7530;DHT22;3806;52.270;10.544;2022-07-01T09:40:54;19.20;99.90
7530;DHT22;3806;52.270;10.544;2022-07-01T09:43:21;19.20;99.90
7530;DHT22;3806;52.270;10.544;2022-07-01T09:45:55;19.20;99.90
7530;DHT22;3806;52.270;10.544;2022-07-01T09:48:22;19.20;99.90
7530;DHT22;3806;52.270;10.544;2022-07-01T09:50:48;19.10;99.90
7530;DHT22;3806;52.270;10.544;2022-07-01T09:53:14;19.00;99.90
7530;DHT22;3806;52.270;10.544;2022-07-01T09:55:42;19.10;99.90
7530;DHT22;3806;52.270;10.544;2022-07-01T09:58:24;19.10;99.90
7530;DHT22;3806;52.270;10.544;2022-07-01T10:04:08;19.10;99.90
7530;DHT22;3806;52.270;10.544;2022-07-01T10:07:35;19.00;99.90
7530;DHT22;3806;52.270;10.544;2022-07-01T10:09:56;19.00;99.90
7530;DHT22;3806;52.270;10.544;2022-07-01T10:12:39;19.00;99.90
7530;DHT22;3806;52.270;10.544;2022-07-01T10:15:10;19.00;99.90
7530;DHT22;3806;52.270;10.544;2022-07-01T10:17:49;19.00;99.90
7530;DHT22;3806;52.270;10.544;2022-07-01T10:20:52;19.00;99.90
7530;DHT22;3806;52.270;10.544;2022-07-01T10:23:23;19.10;99.90
7530;DHT22;3806;52.270;10.544;2022-07-01T10:25:50;19.10;99.90
7530;DHT22;3806;52.270;10.544;2022-07-01T10:28:29;19.10;99.90
7530;DHT22;3806;52.270;10.544;2022-07-01T10:30:59;19.00;99.90
7530;DHT22;3806;52.270;10.544;2022-07-01T10:33:30;19.10;99.90
7530;DHT22;3806;52.270;10.544;2022-07-01T10:36:33;19.10;99.90
7530;DHT22;3806;52.270;10.544;2022-07-01T10:44:20;19.20;99.90
7530;DHT22;3806;52.270;10.544;2022-07-01T10:52:14;19.30;99.90
7530;DHT22;3806;52.270;10.544;2022-07-01T10:59:47;19.40;99.90
7530;DHT22;3806;52.270;10.544;2022-07-01T11:02:39;19.50;99.90
7530;DHT22;3806;52.270;10.544;2022-07-01T11:05:10;19.60;99.90
7530;DHT22;3806;52.270;10.544;2022-07-01T11:07:38;19.70;99.90
7530;DHT22;3806;52.270;10.544;2022-07-01T11:10:07;19.70;99.90
7530;DHT22;3806;52.270;10.544;2022-07-01T11:12:33;19.70;99.90
7530;DHT22;3806;52.270;10.544;2022-07-01T11:15:00;19.80;99.90
7530;DHT22;3806;52.270;10.544;2022-07-01T11:17:31;19.90;99.90
7530;DHT22;3806;52.270;10.544;2022-07-01T11:19:59;19.90;99.50
7530;DHT22;3806;52.270;10.544;2022-07-01T11:22:29;20.00;99.50
7530;DHT22;3806;52.270;10.544;2022-07-01T11:25:00;19.90;99.20
7530;DHT22;3806;52.270;10.544;2022-07-01T11:27:27;19.90;99.20
7530;DHT22;3806;52.270;10.544;2022-07-01T11:30:07;19.90;99.10
7530;DHT22;3806;52.270;10.544;2022-07-01T11:32:37;20.00;98.70
7530;DHT22;3806;52.270;10.544;2022-07-01T11:35:05;20.00;98.60
7530;DHT22;3806;52.270;10.544;2022-07-01T11:38:20;20.00;98.30
7530;DHT22;3806;52.270;10.544;2022-07-01T11:41:10;20.00;98.10
7530;DHT22;3806;52.270;10.544;2022-07-01T11:43:42;20.00;98.10
7530;DHT22;3806;52.270;10.544;2022-07-01T11:46:08;20.10;98.20
7530;DHT22;3806;52.270;10.544;2022-07-01T11:51:26;20.20;98.00
7530;DHT22;3806;52.270;10.544;2022-07-01T11:53:53;20.20;98.00
7530;DHT22;3806;52.270;10.544;2022-07-01T11:56:32;20.30;97.80
7530;DHT22;3806;52.270;10.544;2022-07-01T11:58:59;20.30;97.70
7530;DHT22;3806;52.270;10.544;2022-07-01T12:01:27;20.30;97.30
7530;DHT22;3806;52.270;10.544;2022-07-01T12:03:55;20.30;96.90
7530;DHT22;3806;52.270;10.544;2022-07-01T12:06:22;20.30;97.00
7530;DHT22;3806;52.270;10.544;2022-07-01T12:08:49;20.30;96.90
7530;DHT22;3806;52.270;10.544;2022-07-01T12:11:16;20.30;97.00
7530;DHT22;3806;52.270;10.544;2022-07-01T12:13:44;20.20;97.00
7530;DHT22;3806;52.270;10.544;2022-07-01T12:16:12;20.20;97.00
7530;DHT22;3806;52.270;10.544;2022-07-01T12:18:38;20.00;97.00
7530;DHT22;3806;52.270;10.544;2022-07-01T12:21:04;20.00;97.20
7530;DHT22;3806;52.270;10.544;2022-07-01T12:23:30;19.90;97.30
7530;DHT22;3806;52.270;10.544;2022-07-01T12:25:57;19.90;97.60
7530;DHT22;3806;52.270;10.544;2022-07-01T12:28:53;19.90;97.70
7530;DHT22;3806;52.270;10.544;2022-07-01T12:31:19;20.00;97.90
7530;DHT22;3806;52.270;10.544;2022-07-01T12:33:52;20.00;98.00
7530;DHT22;3806;52.270;10.544;2022-07-01T12:36:18;20.10;98.20
7530;DHT22;3806;52.270;10.544;2022-07-01T12:38:44;20.20;98.30
7530;DHT22;3806;52.270;10.544;2022-07-01T12:43:54;20.70;98.00
7530;DHT22;3806;52.270;10.544;2022-07-01T12:46:31;20.90;97.70
7530;DHT22;3806;52.270;10.544;2022-07-01T12:48:57;21.20;97.80
7530;DHT22;3806;52.270;10.544;2022-07-01T12:51:33;21.40;97.50
7530;DHT22;3806;52.270;10.544;2022-07-01T12:53:59;21.50;96.70
7530;DHT22;3806;52.270;10.544;2022-07-01T12:56:29;21.50;96.40
7530;DHT22;3806;52.270;10.544;2022-07-01T12:58:55;21.60;96.00
7530;DHT22;3806;52.270;10.544;2022-07-01T13:01:21;21.60;95.90
7530;DHT22;3806;52.270;10.544;2022-07-01T13:03:47;21.60;95.90
7530;DHT22;3806;52.270;10.544;2022-07-01T13:06:13;21.50;95.90
7530;DHT22;3806;52.270;10.544;2022-07-01T13:08:39;21.50;96.00
7530;DHT22;3806;52.270;10.544;2022-07-01T13:11:05;21.40;95.60
7530;DHT22;3806;52.270;10.544;2022-07-01T13:13:34;21.20;95.20
7530;DHT22;3806;52.270;10.544;2022-07-01T13:15:59;21.00;94.80
7530;DHT22;3806;52.270;10.544;2022-07-01T13:18:25;20.80;95.10
7530;DHT22;3806;52.270;10.544;2022-07-01T13:20:51;20.80;95.40
7530;DHT22;3806;52.270;10.544;2022-07-01T13:23:16;20.70;95.50
7530;DHT22;3806;52.270;10.544;2022-07-01T13:25:42;20.70;95.30
7530;DHT22;3806;52.270;10.544;2022-07-01T13:28:08;20.60;94.80
7530;DHT22;3806;52.270;10.544;2022-07-01T13:30:34;20.50;95.00
7530;DHT22;3806;52.270;10.544;2022-07-01T13:33:02;20.50;95.30
7530;DHT22;3806;52.270;10.544;2022-07-01T13:35:28;20.60;95.50
7530;DHT22;3806;52.270;10.544;2022-07-01T13:37:54;20.60;95.50
7530;DHT22;3806;52.270;10.544;2022-07-01T13:40:19;20.60;95.40
7530;DHT22;3806;52.270;10.544;2022-07-01T13:42:47;20.60;95.50
7530;DHT22;3806;52.270;10.544;2022-07-01T13:45:12;20.70;95.80
7530;DHT22;3806;52.270;10.544;2022-07-01T13:47:39;20.70;95.70
7530;DHT22;3806;52.270;10.544;2022-07-01T13:50:05;20.70;95.80
7530;DHT22;3806;52.270;10.544;2022-07-01T13:52:31;20.70;95.50
7530;DHT22;3806;52.270;10.544;2022-07-01T13:54:57;20.70;95.50
7530;DHT22;3806;52.270;10.544;2022-07-01T13:57:23;20.80;95.70
7530;DHT22;3806;52.270;10.544;2022-07-01T13:59:49;20.70;95.70
7530;DHT22;3806;52.270;10.544;2022-07-01T14:02:15;20.80;95.70
7530;DHT22;3806;52.270;10.544;2022-07-01T14:04:44;20.90;95.70
7530;DHT22;3806;52.270;10.544;2022-07-01T14:07:09;21.00;95.40
7530;DHT22;3806;52.270;10.544;2022-07-01T14:09:35;21.20;95.10
7530;DHT22;3806;52.270;10.544;2022-07-01T14:12:02;21.30;95.10
7530;DHT22;3806;52.270;10.544;2022-07-01T14:14:27;21.50;94.60
7530;DHT22;3806;52.270;10.544;2022-07-01T14:16:53;21.60;93.60
7530;DHT22;3806;52.270;10.544;2022-07-01T14:19:18;21.70;93.30
7530;DHT22;3806;52.270;10.544;2022-07-01T14:21:44;21.80;93.00
7530;DHT22;3806;52.270;10.544;2022-07-01T14:24:10;21.90;92.10
7530;DHT22;3806;52.270;10.544;2022-07-01T14:26:35;22.10;91.00
7530;DHT22;3806;52.270;10.544;2022-07-01T14:29:01;22.00;90.50
7530;DHT22;3806;52.270;10.544;2022-07-01T14:31:27;21.90;90.10
7530;DHT22;3806;52.270;10.544;2022-07-01T14:33:55;21.90;90.20
7530;DHT22;3806;52.270;10.544;2022-07-01T14:36:20;21.90;90.00
7530;DHT22;3806;52.270;10.544;2022-07-01T14:38:46;22.00;89.70
7530;DHT22;3806;52.270;10.544;2022-07-01T14:41:12;22.00;89.80
7530;DHT22;3806;52.270;10.544;2022-07-01T14:43:37;22.00;89.60
7530;DHT22;3806;52.270;10.544;2022-07-01T14:46:04;22.00;89.20
7530;DHT22;3806;52.270;10.544;2022-07-01T14:48:34;21.90;87.10
7530;DHT22;3806;52.270;10.544;2022-07-01T14:51:01;21.80;86.80
7530;DHT22;3806;52.270;10.544;2022-07-01T14:53:27;21.70;86.50
7530;DHT22;3806;52.270;10.544;2022-07-01T14:55:52;21.60;85.90
7530;DHT22;3806;52.270;10.544;2022-07-01T14:58:18;21.50;86.30
7530;DHT22;3806;52.270;10.544;2022-07-01T15:00:45;21.50;86.10
7530;DHT22;3806;52.270;10.544;2022-07-01T15:03:11;21.40;86.20
7530;DHT22;3806;52.270;10.544;2022-07-01T15:05:37;21.30;86.60
7530;DHT22;3806;52.270;10.544;2022-07-01T15:08:02;21.30;87.30
7530;DHT22;3806;52.270;10.544;2022-07-01T15:10:28;21.30;87.50
7530;DHT22;3806;52.270;10.544;2022-07-01T15:12:54;21.30;87.30
7530;DHT22;3806;52.270;10.544;2022-07-01T15:15:19;21.30;87.10
7530;DHT22;3806;52.270;10.544;2022-07-01T15:17:46;21.30;86.90
7530;DHT22;3806;52.270;10.544;2022-07-01T15:20:13;21.30;87.10
7530;DHT22;3806;52.270;10.544;2022-07-01T15:22:39;21.30;87.00
7530;DHT22;3806;52.270;10.544;2022-07-01T15:25:05;21.40;87.00
7530;DHT22;3806;52.270;10.544;2022-07-01T15:27:31;21.40;86.80
7530;DHT22;3806;52.270;10.544;2022-07-01T15:29:57;21.40;87.00
7530;DHT22;3806;52.270;10.544;2022-07-01T15:32:23;21.40;86.60
7530;DHT22;3806;52.270;10.544;2022-07-01T15:34:49;21.50;87.00
7530;DHT22;3806;52.270;10.544;2022-07-01T15:37:15;21.40;86.80
7530;DHT22;3806;52.270;10.544;2022-07-01T15:39:40;21.40;87.00
7530;DHT22;3806;52.270;10.544;2022-07-01T15:42:06;21.40;86.40
7530;DHT22;3806;52.270;10.544;2022-07-01T15:44:32;21.40;86.50
7530;DHT22;3806;52.270;10.544;2022-07-01T15:46:59;21.40;86.60
7530;DHT22;3806;52.270;10.544;2022-07-01T15:49:44;21.40;87.30
7530;DHT22;3806;52.270;10.544;2022-07-01T15:52:10;21.40;86.20
7530;DHT22;3806;52.270;10.544;2022-07-01T15:54:35;21.50;86.80
7530;DHT22;3806;52.270;10.544;2022-07-01T15:57:01;21.60;86.60
7530;DHT22;3806;52.270;10.544;2022-07-01T15:59:26;21.70;86.60
7530;DHT22;3806;52.270;10.544;2022-07-01T16:01:52;21.80;85.80
7530;DHT22;3806;52.270;10.544;2022-07-01T16:04:21;22.00;85.30
7530;DHT22;3806;52.270;10.544;2022-07-01T16:06:48;22.10;85.40
7530;DHT22;3806;52.270;10.544;2022-07-01T16:09:14;22.20;84.30
7530;DHT22;3806;52.270;10.544;2022-07-01T16:11:42;22.30;83.60
7530;DHT22;3806;52.270;10.544;2022-07-01T16:14:11;22.30;83.10
7530;DHT22;3806;52.270;10.544;2022-07-01T16:16:38;22.30;82.90
7530;DHT22;3806;52.270;10.544;2022-07-01T16:19:04;22.40;82.80
7530;DHT22;3806;52.270;10.544;2022-07-01T16:21:33;22.40;82.60
7530;DHT22;3806;52.270;10.544;2022-07-01T16:24:02;22.50;81.40
7530;DHT22;3806;52.270;10.544;2022-07-01T16:26:28;22.50;80.80